createdAt,value
2016-02-05T00:00:07.461Z,3.23
2016-02-05T00:01:07.450Z,3.23
2016-02-05T00:02:07.436Z,3.28
2016-02-05T00:03:07.439Z,3.18
2016-02-05T00:04:07.535Z,3.32
2016-02-05T00:05:07.430Z,3.29
2016-02-05T00:06:07.400Z,3.28
2016-02-05T00:07:07.403Z,3.32
2016-02-05T00:08:07.406Z,3.26
2016-02-05T00:09:07.408Z,3.32
2016-02-05T00:10:07.381Z,3.24
2016-02-05T00:11:07.415Z,3.26
2016-02-05T00:12:07.402Z,3.35
2016-02-05T00:13:07.373Z,3.32
2016-02-05T00:14:07.361Z,3.36
2016-02-05T00:15:07.383Z,3.28
2016-02-05T00:16:07.355Z,3.32
2016-02-05T00:17:07.374Z,3.29
2016-02-05T00:18:07.346Z,3.42
2016-02-05T00:19:07.333Z,3.32
2016-02-05T00:20:07.351Z,3.39
2016-02-05T00:21:07.354Z,3.42
2016-02-05T00:22:07.325Z,3.31
2016-02-05T00:23:07.329Z,3.39
2016-02-05T00:24:07.331Z,3.36
2016-02-05T00:25:07.308Z,3.39
2016-02-05T00:26:07.311Z,3.39
2016-02-05T00:27:07.314Z,3.39
2016-02-05T00:28:07.300Z,3.32
2016-02-05T00:29:07.287Z,3.31
2016-02-05T00:30:07.312Z,3.24
2016-02-05T00:31:07.127Z,3.28
2016-02-05T00:32:07.291Z,3.32
2016-02-05T00:33:07.123Z,3.31
2016-02-05T00:34:07.266Z,3.32
2016-02-05T00:35:07.268Z,3.33
2016-02-05T00:36:07.515Z,3.29
2016-02-05T00:37:07.252Z,3.29
2016-02-05T00:38:07.255Z,3.24
2016-02-05T00:39:07.258Z,3.26
2016-02-05T00:40:07.245Z,3.2
2016-02-05T00:41:07.232Z,3.31
2016-02-05T00:42:07.250Z,3.2
2016-02-05T00:43:07.227Z,3.2
2016-02-05T00:44:07.231Z,3.23
2016-02-05T00:45:07.234Z,3.18
2016-02-05T00:46:07.205Z,3.14
2016-02-05T00:47:07.223Z,3.18
2016-02-05T00:48:07.211Z,3.15
2016-02-05T00:49:07.198Z,3.18
2016-02-05T00:50:07.184Z,3.21
2016-02-05T00:51:07.187Z,3.21
2016-02-05T00:52:07.175Z,3.18
2016-02-05T00:53:07.178Z,3.15
2016-02-05T00:54:07.180Z,3.11
2016-02-05T00:55:07.153Z,3.17
2016-02-05T00:56:07.189Z,3.15
2016-02-05T00:57:07.160Z,3.14
2016-02-05T00:58:07.135Z,3.08
2016-02-05T00:59:07.137Z,3.14
2016-02-05T01:00:07.140Z,3.11
2016-02-05T01:01:07.127Z,3.15
2016-02-05T01:02:07.130Z,3.13
2016-02-05T01:03:07.132Z,3.1
2016-02-05T01:04:07.104Z,3.03
2016-02-05T01:05:07.107Z,3.02
2016-02-05T01:06:07.126Z,3
2016-02-05T01:07:07.097Z,3
2016-02-05T01:08:07.100Z,2.97
2016-02-05T01:09:07.088Z,2.97
2016-02-05T01:10:07.074Z,2.89
2016-02-05T01:11:07.077Z,2.92
2016-02-05T01:12:07.079Z,2.82
2016-02-05T01:13:07.069Z,2.81
2016-02-05T01:14:07.071Z,2.81
2016-02-05T01:15:07.058Z,2.77
2016-02-05T01:16:07.060Z,2.82
2016-02-05T01:17:07.047Z,2.79
2016-02-05T01:18:07.039Z,2.81
2016-02-05T01:19:07.026Z,2.75
2016-02-05T01:20:07.044Z,2.81
2016-02-05T01:21:07.014Z,2.79
2016-02-05T01:22:07.003Z,2.71
2016-02-05T01:23:07.005Z,2.74
2016-02-05T01:24:07.008Z,2.63
2016-02-05T01:25:06.994Z,2.71
2016-02-05T01:26:06.998Z,2.63
2016-02-05T01:27:06.984Z,2.64
2016-02-05T01:28:07.008Z,2.64
2016-02-05T01:29:06.979Z,2.71
2016-02-05T01:30:06.966Z,2.74
2016-02-05T01:31:06.953Z,2.66
2016-02-05T01:32:06.955Z,2.67
2016-02-05T01:33:06.958Z,2.72
2016-02-05T01:34:06.946Z,2.69
2016-02-05T01:35:06.953Z,2.71
2016-02-05T01:36:06.955Z,2.63
2016-02-05T01:37:06.927Z,2.59
2016-02-05T01:38:06.914Z,2.69
2016-02-05T01:39:06.917Z,2.57
2016-02-05T01:40:06.935Z,2.64
2016-02-05T01:41:06.906Z,2.71
2016-02-05T01:42:06.908Z,2.64
2016-02-05T01:43:06.896Z,2.67
2016-02-05T01:44:06.899Z,2.66
2016-02-05T01:45:06.885Z,2.64
2016-02-05T01:46:06.872Z,2.57
2016-02-05T01:47:06.874Z,2.74
2016-02-05T01:48:06.864Z,2.69
2016-02-05T01:49:06.881Z,2.67
2016-02-05T01:50:06.853Z,2.61
2016-02-05T01:51:06.855Z,2.64
2016-02-05T01:52:06.858Z,2.63
2016-02-05T01:53:06.834Z,2.66
2016-02-05T01:54:06.836Z,2.59
2016-02-05T01:55:06.842Z,2.66
2016-02-05T01:56:06.845Z,2.72
2016-02-05T01:57:06.816Z,2.74
2016-02-05T01:58:06.827Z,2.75
2016-02-05T01:59:06.798Z,2.72
2016-02-05T02:00:06.785Z,2.85
2016-02-05T02:01:06.804Z,2.77
2016-02-05T02:02:06.790Z,2.78
2016-02-05T02:03:06.778Z,2.77
2016-02-05T02:04:06.786Z,2.81
2016-02-05T02:05:06.773Z,2.78
2016-02-05T02:06:06.775Z,2.79
2016-02-05T02:07:06.777Z,2.82
2016-02-05T02:08:06.750Z,2.81
2016-02-05T02:09:06.737Z,2.84
2016-02-05T02:10:06.756Z,2.82
2016-02-05T02:11:06.743Z,2.79
2016-02-05T02:12:06.730Z,2.82
2016-02-05T02:13:06.749Z,2.85
2016-02-05T02:14:06.720Z,2.81
2016-02-05T02:15:06.707Z,2.82
2016-02-05T02:16:06.741Z,2.87
2016-02-05T02:17:06.697Z,2.95
2016-02-05T02:18:06.700Z,2.89
2016-02-05T02:19:06.703Z,2.84
2016-02-05T02:20:06.675Z,3
2016-02-05T02:21:06.678Z,2.93
2016-02-05T02:22:06.713Z,2.9
2016-02-05T02:23:06.684Z,2.89
2016-02-05T02:24:06.656Z,2.95
2016-02-05T02:25:06.674Z,3.03
2016-02-05T02:26:06.661Z,3.03
2016-02-05T02:27:06.648Z,3
2016-02-05T02:28:06.638Z,2.93
2016-02-05T02:29:06.624Z,2.97
2016-02-05T02:30:06.649Z,2.99
2016-02-05T02:31:06.619Z,2.97
2016-02-05T02:32:06.607Z,3.03
2016-02-05T02:33:06.624Z,3.02
2016-02-05T02:34:06.613Z,3
2016-02-05T02:35:06.599Z,2.96
2016-02-05T02:36:06.618Z,3.03
2016-02-05T02:37:06.589Z,3.02
2016-02-05T02:38:06.576Z,3.03
2016-02-05T02:39:06.563Z,3.03
2016-02-05T02:40:06.582Z,2.97
2016-02-05T02:41:06.569Z,3.05
2016-02-05T02:42:06.571Z,3.02
2016-02-05T02:43:06.575Z,3.05
2016-02-05T02:44:06.552Z,2.97
2016-02-05T02:45:06.398Z,3.02
2016-02-05T02:46:06.540Z,2.99
2016-02-05T02:47:06.528Z,3.05
2016-02-05T02:48:06.546Z,3.03
2016-02-05T02:49:06.517Z,3.06
2016-02-05T02:50:06.520Z,3.03
2016-02-05T02:51:06.523Z,2.96
2016-02-05T02:52:06.510Z,3.03
2016-02-05T02:53:06.500Z,3
2016-02-05T02:54:06.503Z,3.03
2016-02-05T02:55:06.505Z,2.93
2016-02-05T02:56:06.508Z,2.96
2016-02-05T02:57:06.495Z,3.08
2016-02-05T02:58:06.499Z,3.03
2016-02-05T02:59:06.471Z,3.06
2016-02-05T03:01:06.480Z,3.03
2016-02-05T03:02:06.450Z,3
2016-02-05T03:03:06.453Z,3.03
2016-02-05T03:04:06.456Z,3.02
2016-02-05T03:05:06.444Z,3.03
2016-02-05T03:06:06.447Z,3.03
2016-02-05T03:07:06.419Z,3
2016-02-05T03:08:06.421Z,3
2016-02-05T03:09:06.425Z,3.08
2016-02-05T03:10:06.427Z,3.05
2016-02-05T03:11:06.398Z,3
2016-02-05T03:12:06.416Z,3
2016-02-05T03:13:06.389Z,3.03
2016-02-05T03:14:06.380Z,3
2016-02-05T03:15:06.383Z,2.97
2016-02-05T03:16:06.372Z,2.99
2016-02-05T03:17:06.391Z,3
2016-02-05T03:18:06.378Z,2.9
2016-02-05T03:19:06.365Z,2.97
2016-02-05T03:20:06.355Z,2.79
2016-02-05T03:21:06.359Z,2.82
2016-02-05T03:22:06.346Z,2.89
2016-02-05T03:23:06.333Z,2.82
2016-02-05T03:24:06.336Z,2.81
2016-02-05T03:25:06.338Z,2.82
2016-02-05T03:26:06.342Z,2.78
2016-02-05T03:27:06.329Z,2.82
2016-02-05T03:28:06.348Z,2.78
2016-02-05T03:29:06.303Z,2.78
2016-02-05T03:30:06.306Z,2.74
2016-02-05T03:31:06.289Z,2.75
2016-02-05T03:32:06.292Z,2.72
2016-02-05T03:33:06.279Z,2.71
2016-02-05T03:34:06.281Z,2.61
2016-02-05T03:35:06.268Z,2.72
2016-02-05T03:36:06.271Z,2.63
2016-02-05T03:37:06.258Z,2.61
2016-02-05T03:38:06.262Z,2.61
2016-02-05T03:39:06.250Z,2.61
2016-02-05T03:40:06.267Z,2.61
2016-02-05T03:41:06.224Z,2.59
2016-02-05T03:42:06.226Z,2.56
2016-02-05T03:43:06.245Z,2.56
2016-02-05T03:44:06.217Z,2.6
2016-02-05T03:45:06.219Z,2.41
2016-02-05T03:46:06.208Z,2.52
2016-02-05T03:47:06.194Z,2.48
2016-02-05T03:48:06.198Z,2.59
2016-02-05T03:49:06.200Z,2.45
2016-02-05T03:50:06.172Z,2.52
2016-02-05T03:51:06.190Z,2.53
2016-02-05T03:52:06.178Z,2.41
2016-02-05T03:53:06.196Z,2.43
2016-02-05T03:54:06.167Z,2.46
2016-02-05T03:55:06.155Z,2.42
2016-02-05T03:56:06.172Z,2.42
2016-02-05T03:57:06.144Z,2.42
2016-02-05T03:58:06.135Z,2.43
2016-02-05T03:59:06.121Z,2.36
2016-02-05T04:00:06.130Z,2.31
2016-02-05T04:01:06.117Z,2.3
2016-02-05T04:02:06.105Z,2.3
2016-02-05T04:03:06.092Z,2.28
2016-02-05T04:04:06.094Z,2.24
2016-02-05T04:05:06.098Z,2.25
2016-02-05T04:06:06.087Z,2.25
2016-02-05T04:07:06.075Z,2.27
2016-02-05T04:08:06.077Z,2.31
2016-02-05T04:09:06.064Z,2.27
2016-02-05T04:10:06.067Z,2.3
2016-02-05T04:11:06.038Z,2.31
2016-02-05T04:12:06.025Z,2.3
2016-02-05T04:13:06.044Z,2.31
2016-02-05T04:14:06.046Z,2.45
2016-02-05T04:15:06.033Z,2.39
2016-02-05T04:16:06.052Z,2.39
2016-02-05T04:17:06.007Z,2.39
2016-02-05T04:18:06.011Z,2.42
2016-02-05T04:19:06.013Z,2.39
2016-02-05T04:20:05.986Z,2.43
2016-02-05T04:21:05.988Z,2.53
2016-02-05T04:22:06.006Z,2.46
2016-02-05T04:23:05.967Z,2.53
2016-02-05T04:24:05.971Z,2.46
2016-02-05T04:25:05.958Z,2.57
2016-02-05T04:26:05.960Z,2.57
2016-02-05T04:27:05.947Z,2.61
2016-02-05T04:28:05.949Z,2.57
2016-02-05T04:29:05.937Z,2.64
2016-02-05T04:30:05.922Z,2.56
2016-02-05T04:31:05.925Z,2.61
2016-02-05T04:32:05.943Z,2.63
2016-02-05T04:33:05.908Z,2.56
2016-02-05T04:34:05.903Z,2.61
2016-02-05T04:35:05.897Z,2.56
2016-02-05T04:36:05.861Z,2.64
2016-02-05T04:37:05.872Z,2.67
2016-02-05T04:38:06.136Z,2.66
2016-02-05T04:39:06.089Z,2.67
2016-02-05T04:40:05.964Z,2.74
2016-02-05T04:41:05.903Z,2.64
2016-02-05T04:42:06.059Z,2.71
2016-02-05T04:43:06.091Z,2.6
2016-02-05T04:44:06.093Z,2.72
2016-02-05T04:45:05.922Z,2.75
2016-02-05T04:46:05.987Z,2.79
2016-02-05T04:47:05.894Z,2.72
2016-02-05T04:48:06.021Z,2.81
2016-02-05T04:49:05.930Z,2.79
2016-02-05T04:50:05.979Z,2.78
2016-02-05T04:51:05.999Z,2.79
2016-02-05T04:52:05.970Z,2.78
2016-02-05T04:53:06.051Z,2.87
2016-02-05T04:54:06.022Z,2.77
2016-02-05T04:55:06.087Z,2.85
2016-02-05T04:56:06.047Z,2.81
2016-02-05T04:57:05.691Z,2.78
2016-02-05T04:58:05.911Z,2.79
2016-02-05T04:59:06.025Z,2.79
2016-02-05T05:00:06.108Z,2.9
2016-02-05T05:01:05.969Z,2.82
2016-02-05T05:02:05.894Z,2.82
2016-02-05T05:03:06.037Z,2.95
2016-02-05T05:04:05.965Z,2.96
2016-02-05T05:05:06.327Z,2.81
2016-02-05T05:06:05.813Z,2.95
2016-02-05T05:07:05.847Z,2.9
2016-02-05T05:08:05.945Z,2.89
2016-02-05T05:09:05.853Z,2.89
2016-02-05T05:10:05.902Z,2.85
2016-02-05T05:11:05.796Z,2.9
2016-02-05T05:12:05.815Z,2.92
2016-02-05T05:13:05.927Z,2.96
2016-02-05T05:14:05.882Z,2.93
2016-02-05T05:15:05.901Z,2.95
2016-02-05T05:16:05.794Z,2.97
2016-02-05T05:17:05.797Z,2.92
2016-02-05T05:18:05.832Z,2.93
2016-02-05T05:19:05.162Z,2.95
2016-02-05T05:20:05.790Z,2.96
2016-02-05T05:21:05.777Z,2.96
2016-02-05T05:22:05.858Z,2.89
2016-02-05T05:23:05.752Z,3
2016-02-05T05:24:05.755Z,2.97
2016-02-05T05:25:05.695Z,2.96
2016-02-05T05:26:05.870Z,3.03
2016-02-05T05:27:05.778Z,2.93
2016-02-05T05:28:05.672Z,2.96
2016-02-05T05:29:05.726Z,2.95
2016-02-05T05:30:05.778Z,2.95
2016-02-05T05:31:05.781Z,2.95
2016-02-05T05:32:05.784Z,3.03
2016-02-05T05:33:05.692Z,2.97
2016-02-05T05:34:05.789Z,2.96
2016-02-05T05:35:05.089Z,3.05
2016-02-05T05:36:05.720Z,2.99
2016-02-05T05:37:05.894Z,3.03
2016-02-05T05:38:05.757Z,2.99
2016-02-05T05:39:05.775Z,3
2016-02-05T05:40:05.810Z,3
2016-02-05T05:41:05.812Z,3.02
2016-02-05T05:42:05.657Z,2.99
2016-02-05T05:43:05.755Z,3
2016-02-05T05:44:05.571Z,3
2016-02-05T05:45:05.589Z,3
2016-02-05T05:46:05.685Z,3.02
2016-02-05T05:47:05.563Z,3.02
2016-02-05T05:48:05.738Z,3.03
2016-02-05T05:49:05.631Z,2.99
2016-02-05T05:50:05.744Z,3
2016-02-05T05:51:05.653Z,3.03
2016-02-05T05:52:05.421Z,2.97
2016-02-05T05:53:05.643Z,3.05
2016-02-05T05:54:05.739Z,3.02
2016-02-05T05:55:05.680Z,2.99
2016-02-05T05:56:05.650Z,3.02
2016-02-05T05:57:05.637Z,2.97
2016-02-05T05:58:05.516Z,2.97
2016-02-05T05:59:05.612Z,2.99
2016-02-05T06:00:05.615Z,2.99
2016-02-05T06:01:05.539Z,3.03
2016-02-05T06:02:05.887Z,3.02
2016-02-05T06:03:05.545Z,3.02
2016-02-05T06:04:05.548Z,3.03
2016-02-05T06:05:04.754Z,3.03
2016-02-05T06:06:05.631Z,2.96
2016-02-05T06:07:05.541Z,3.03
2016-02-05T06:08:05.497Z,2.96
2016-02-05T06:09:05.579Z,3.05
2016-02-05T06:10:05.347Z,3.02
2016-02-05T06:11:05.568Z,3.03
2016-02-05T06:12:05.461Z,3.03
2016-02-05T06:13:05.636Z,2.99
2016-02-05T06:14:05.561Z,3
2016-02-05T06:15:05.423Z,3.03
2016-02-05T06:16:05.534Z,2.96
2016-02-05T06:17:05.616Z,3
2016-02-05T06:18:05.463Z,3
2016-02-05T06:19:05.452Z,3
2016-02-05T06:20:05.469Z,3.03
2016-02-05T06:21:05.488Z,3
2016-02-05T06:22:05.431Z,3
2016-02-05T06:23:05.466Z,3.06
2016-02-05T06:24:05.453Z,3
2016-02-05T06:25:05.486Z,3.1
2016-02-05T06:26:05.489Z,2.99
2016-02-05T06:27:05.522Z,3.06
2016-02-05T06:28:05.495Z,3
2016-02-05T06:29:05.422Z,3.14
2016-02-05T06:30:05.465Z,3.02
2016-02-05T06:31:05.514Z,3.08
2016-02-05T06:32:05.392Z,3.11
2016-02-05T06:33:05.223Z,3.14
2016-02-05T06:34:05.554Z,3.17
2016-02-05T06:35:05.775Z,3.08
2016-02-05T06:36:05.637Z,3.13
2016-02-05T06:37:05.187Z,3.08
2016-02-05T06:38:05.564Z,3.1
2016-02-05T06:39:05.223Z,3.14
2016-02-05T06:40:05.445Z,3.13
2016-02-05T06:41:05.308Z,3.13
2016-02-05T06:42:05.529Z,3.13
2016-02-05T06:43:05.439Z,3.18
2016-02-05T06:44:05.425Z,3.18
2016-02-05T06:45:05.319Z,3.18
2016-02-05T06:46:05.431Z,3.15
2016-02-05T06:47:05.387Z,3.17
2016-02-05T06:48:05.311Z,3.17
2016-02-05T06:49:05.391Z,3.18
2016-02-05T06:50:05.378Z,3.13
2016-02-05T06:51:05.242Z,3.17
2016-02-05T06:52:05.306Z,3.18
2016-02-05T06:53:05.230Z,3.26
2016-02-05T06:54:05.281Z,3.2
2016-02-05T06:55:05.267Z,3.14
2016-02-05T06:56:05.178Z,3.2
2016-02-05T06:57:05.352Z,3.21
2016-02-05T06:58:05.339Z,3.31
2016-02-05T07:00:05.342Z,3.24
2016-02-05T07:01:05.328Z,3.18
2016-02-05T07:02:05.206Z,3.28
2016-02-05T07:03:05.099Z,3.33
2016-02-05T07:04:05.400Z,3.29
2016-02-05T07:05:05.434Z,3.35
2016-02-05T07:06:05.140Z,3.39
2016-02-05T07:07:05.345Z,3.39
2016-02-05T07:08:05.317Z,3.26
2016-02-05T07:09:05.148Z,3.36
2016-02-05T07:10:05.307Z,3.35
2016-02-05T07:11:05.092Z,3.35
2016-02-05T07:12:05.016Z,3.36
2016-02-05T07:13:05.223Z,3.36
2016-02-05T07:14:05.147Z,3.35
2016-02-05T07:15:05.088Z,3.43
2016-02-05T07:16:04.403Z,3.33
2016-02-05T07:17:05.156Z,3.45
2016-02-05T07:18:05.221Z,3.45
2016-02-05T07:19:05.240Z,3.4
2016-02-05T07:20:05.101Z,3.45
2016-02-05T07:21:05.182Z,3.48
2016-02-05T07:22:05.254Z,3.47
2016-02-05T07:23:05.210Z,3.57
2016-02-05T07:24:05.088Z,3.51
2016-02-05T07:25:05.137Z,3.54
2016-02-05T07:26:05.094Z,3.51
2016-02-05T07:27:05.503Z,3.57
2016-02-05T07:28:05.225Z,3.55
2016-02-05T07:29:05.118Z,3.48
2016-02-05T07:30:05.091Z,3.57
2016-02-05T07:31:04.500Z,3.54
2016-02-05T07:32:05.081Z,3.57
2016-02-05T07:33:05.177Z,3.52
2016-02-05T07:34:05.086Z,3.58
2016-02-05T07:35:05.107Z,3.57
2016-02-05T07:36:05.157Z,3.58
2016-02-05T07:37:05.127Z,3.6
2016-02-05T07:38:05.068Z,3.58
2016-02-05T07:39:05.086Z,3.55
2016-02-05T07:40:04.996Z,3.55
2016-02-05T07:41:05.138Z,3.6
2016-02-05T07:42:05.079Z,3.58
2016-02-05T07:43:05.050Z,3.55
2016-02-05T07:44:05.067Z,3.55
2016-02-05T07:45:05.024Z,3.62
2016-02-05T07:46:05.106Z,3.62
2016-02-05T07:47:05.123Z,3.55
2016-02-05T07:48:05.063Z,3.6
2016-02-05T07:49:05.034Z,3.66
2016-02-05T07:50:05.022Z,3.68
2016-02-05T07:51:05.039Z,3.75
2016-02-05T07:52:04.996Z,3.69
2016-02-05T07:53:05.092Z,3.8
2016-02-05T07:54:04.829Z,3.72
2016-02-05T07:55:04.819Z,3.78
2016-02-05T07:56:04.837Z,3.7
2016-02-05T07:57:04.824Z,3.78
2016-02-05T07:58:04.810Z,3.72
2016-02-05T07:59:05.063Z,3.73
2016-02-05T08:00:04.941Z,3.75
2016-02-05T08:01:04.512Z,3.75
2016-02-05T08:02:05.205Z,3.73
2016-02-05T08:03:05.052Z,3.73
2016-02-05T08:04:04.977Z,3.72
2016-02-05T08:05:05.027Z,3.72
2016-02-05T08:06:04.966Z,3.72
2016-02-05T08:07:05.000Z,3.65
2016-02-05T08:08:05.004Z,3.7
2016-02-05T08:09:04.913Z,3.86
2016-02-05T08:10:04.916Z,3.73
2016-02-05T08:11:04.808Z,3.9
2016-02-05T08:12:04.921Z,3.86
2016-02-05T08:13:04.924Z,3.78
2016-02-05T08:14:05.035Z,3.88
2016-02-05T08:15:04.913Z,3.86
2016-02-05T08:16:04.947Z,3.93
2016-02-05T08:17:04.965Z,3.97
2016-02-05T08:18:04.890Z,3.91
2016-02-05T08:19:04.830Z,4
2016-02-05T08:20:04.820Z,4.06
2016-02-05T08:21:04.979Z,4.02
2016-02-05T08:22:04.952Z,3.97
2016-02-05T08:23:04.813Z,4.15
2016-02-05T08:24:04.940Z,4.14
2016-02-05T08:25:04.927Z,4.18
2016-02-05T08:26:04.930Z,4.22
2016-02-05T08:27:04.152Z,4.18
2016-02-05T08:28:04.859Z,4.26
2016-02-05T08:29:04.987Z,4.26
2016-02-05T08:30:04.896Z,4.3
2016-02-05T08:31:04.900Z,4.36
2016-02-05T08:32:04.950Z,4.27
2016-02-05T08:33:05.078Z,4.34
2016-02-05T08:34:04.830Z,4.36
2016-02-05T08:35:04.927Z,4.45
2016-02-05T08:36:04.852Z,4.45
2016-02-05T08:37:04.901Z,4.48
2016-02-05T08:38:04.966Z,4.48
2016-02-05T08:39:04.844Z,4.5
2016-02-05T08:40:04.894Z,4.55
2016-02-05T08:41:05.007Z,4.58
2016-02-05T08:42:04.838Z,4.52
2016-02-05T08:43:04.840Z,4.62
2016-02-05T08:44:04.843Z,4.67
2016-02-05T08:45:04.877Z,4.62
2016-02-05T08:46:04.833Z,4.63
2016-02-05T08:47:04.851Z,4.72
2016-02-05T08:48:04.840Z,4.73
2016-02-05T08:49:04.734Z,4.8
2016-02-05T08:50:04.846Z,4.8
2016-02-05T08:51:04.817Z,4.78
2016-02-05T08:52:04.757Z,4.86
2016-02-05T08:53:04.839Z,4.89
2016-02-05T08:54:04.717Z,4.84
2016-02-05T08:55:04.689Z,4.94
2016-02-05T08:56:04.755Z,5
2016-02-05T08:57:04.757Z,4.99
2016-02-05T08:58:04.713Z,5
2016-02-05T08:59:04.777Z,4.94
2016-02-05T09:00:04.735Z,4.94
2016-02-05T09:01:04.834Z,4.99
2016-02-05T09:02:04.712Z,5
2016-02-05T09:03:04.699Z,4.92
2016-02-05T09:04:04.670Z,5.02
2016-02-05T09:05:04.720Z,4.97
2016-02-05T09:06:04.695Z,5
2016-02-05T09:07:04.791Z,5.12
2016-02-05T09:08:04.684Z,5.06
2016-02-05T09:09:04.796Z,5.18
2016-02-05T09:10:04.659Z,5.17
2016-02-05T09:11:04.708Z,5.21
2016-02-05T09:12:04.741Z,5.28
2016-02-05T09:13:04.637Z,5.27
2016-02-05T09:14:04.877Z,5.35
2016-02-05T09:15:04.738Z,5.36
2016-02-05T09:16:04.696Z,5.4
2016-02-05T09:17:04.653Z,5.39
2016-02-05T09:18:04.655Z,5.4
2016-02-05T09:19:04.674Z,5.4
2016-02-05T09:20:04.559Z,5.42
2016-02-05T09:21:04.593Z,5.38
2016-02-05T09:22:04.721Z,5.36
2016-02-05T09:23:04.629Z,5.39
2016-02-05T09:24:04.632Z,5.43
2016-02-05T09:25:04.698Z,5.4
2016-02-05T09:26:04.907Z,5.39
2016-02-05T09:27:04.707Z,5.36
2016-02-05T09:28:04.632Z,5.43
2016-02-05T09:29:04.649Z,5.4
2016-02-05T09:30:04.652Z,5.46
2016-02-05T09:31:04.982Z,5.48
2016-02-05T09:32:04.657Z,5.49
2016-02-05T09:33:04.598Z,5.43
2016-02-05T09:34:04.726Z,5.56
2016-02-05T09:35:05.571Z,5.56
2016-02-05T09:36:05.013Z,5.68
2016-02-05T09:37:04.656Z,5.6
2016-02-05T09:38:04.627Z,5.63
2016-02-05T09:39:04.723Z,5.68
2016-02-05T09:40:04.710Z,5.72
2016-02-05T09:41:04.588Z,5.72
2016-02-05T09:42:04.622Z,5.81
2016-02-05T09:43:04.640Z,5.82
2016-02-05T09:44:05.424Z,5.91
2016-02-05T09:45:04.598Z,5.93
2016-02-05T09:46:05.259Z,5.97
2016-02-05T09:47:04.668Z,5.96
2016-02-05T09:48:04.657Z,6.03
2016-02-05T09:49:04.708Z,6.11
2016-02-05T09:50:04.632Z,6.12
2016-02-05T09:51:04.634Z,6.09
2016-02-05T09:52:04.590Z,6.22
2016-02-05T09:53:04.532Z,6.12
2016-02-05T09:54:04.628Z,6.21
2016-02-05T09:55:04.584Z,6.19
2016-02-05T09:56:04.727Z,6.31
2016-02-05T09:57:04.668Z,6.34
2016-02-05T09:58:04.639Z,6.34
2016-02-05T09:59:04.612Z,6.36
2016-02-05T10:00:04.567Z,6.36
2016-02-05T10:01:04.601Z,6.38
2016-02-05T10:02:03.886Z,6.48
2016-02-05T10:03:04.576Z,6.43
2016-02-05T10:04:04.564Z,6.46
2016-02-05T10:05:04.535Z,6.44
2016-02-05T10:06:04.819Z,6.41
2016-02-05T10:07:04.557Z,6.44
2016-02-05T10:08:04.607Z,6.48
2016-02-05T10:09:04.577Z,6.46
2016-02-05T10:10:04.549Z,6.46
2016-02-05T10:11:04.552Z,6.4
2016-02-05T10:12:04.570Z,6.46
2016-02-05T10:13:04.526Z,6.43
2016-02-05T10:14:04.545Z,6.37
2016-02-05T10:15:04.468Z,6.4
2016-02-05T10:16:04.552Z,6.36
2016-02-05T10:17:04.429Z,6.41
2016-02-05T10:18:04.588Z,6.38
2016-02-05T10:19:04.642Z,6.4
2016-02-05T10:20:04.222Z,6.37
2016-02-05T10:21:04.818Z,6.27
2016-02-05T10:22:04.540Z,6.27
2016-02-05T10:23:04.621Z,6.34
2016-02-05T10:24:04.639Z,6.33
2016-02-05T10:25:04.673Z,6.21
2016-02-05T10:26:04.675Z,6.21
2016-02-05T10:27:04.648Z,6.21
2016-02-05T10:28:04.603Z,6.12
2016-02-05T10:29:04.559Z,6.17
2016-02-05T10:30:04.811Z,6.21
2016-02-05T10:31:04.611Z,6.34
2016-02-05T10:32:04.645Z,6.25
2016-02-05T10:33:04.648Z,6.25
2016-02-05T10:34:04.700Z,6.18
2016-02-05T10:35:04.563Z,6.14
2016-02-05T10:36:04.816Z,6.17
2016-02-05T10:37:04.378Z,6.17
2016-02-05T10:38:04.508Z,6.08
2016-02-05T10:39:04.779Z,6.09
2016-02-05T10:40:04.657Z,6.01
2016-02-05T10:41:04.737Z,6.04
2016-02-05T10:42:04.787Z,6.03
2016-02-05T10:43:04.524Z,6.06
2016-02-05T10:44:04.368Z,6.09
2016-02-05T10:45:04.370Z,6.17
2016-02-05T10:46:04.373Z,6.15
2016-02-05T10:47:04.376Z,6.27
2016-02-05T10:48:04.393Z,6.18
2016-02-05T10:49:04.381Z,6.17
2016-02-05T10:50:04.399Z,6.3
2016-02-05T10:51:04.354Z,6.31
2016-02-05T10:52:04.373Z,6.41
2016-02-05T10:53:04.360Z,6.44
2016-02-05T10:54:04.362Z,6.4
2016-02-05T10:55:04.397Z,6.55
2016-02-05T10:56:04.368Z,6.56
2016-02-05T10:57:04.371Z,6.66
2016-02-05T10:58:04.373Z,6.67
2016-02-05T10:59:04.346Z,6.8
2016-02-05T11:00:04.365Z,6.79
2016-02-05T11:01:04.367Z,6.77
2016-02-05T11:02:04.339Z,6.81
2016-02-05T11:03:04.359Z,6.92
2016-02-05T11:04:04.408Z,6.95
2016-02-05T11:05:04.395Z,6.94
2016-02-05T11:06:04.367Z,7.05
2016-02-05T11:07:04.369Z,7.1
2016-02-05T11:08:04.341Z,7.07
2016-02-05T11:09:04.343Z,7.23
2016-02-05T11:10:04.346Z,7.21
2016-02-05T11:11:04.380Z,7.17
2016-02-05T11:12:04.353Z,7.25
2016-02-05T11:13:04.355Z,7.23
2016-02-05T11:14:04.358Z,7.21
2016-02-05T11:15:04.345Z,7.31
2016-02-05T11:16:04.347Z,7.34
2016-02-05T11:17:04.352Z,7.31
2016-02-05T11:18:04.339Z,7.35
2016-02-05T11:19:04.578Z,7.32
2016-02-05T11:20:04.581Z,7.27
2016-02-05T11:21:04.583Z,7.21
2016-02-05T11:22:04.617Z,7.27
2016-02-05T11:23:04.760Z,7.27
2016-02-05T11:24:06.329Z,7.12
2016-02-05T11:25:04.720Z,7.23
2016-02-05T11:26:04.629Z,7.21
2016-02-05T11:27:04.631Z,7.1
2016-02-05T11:28:04.525Z,7.07
2016-02-05T11:29:04.512Z,7.12
2016-02-05T11:30:04.530Z,7.13
2016-02-05T11:31:04.642Z,7.1
2016-02-05T11:32:03.897Z,7.23
2016-02-05T11:33:04.681Z,7.15
2016-02-05T11:34:04.621Z,7.17
2016-02-05T11:35:04.405Z,7.16
2016-02-05T11:38:07.561Z,7.24
2016-02-05T11:38:54.764Z,7.34
2016-02-05T11:39:54.752Z,7.37
2016-02-05T11:40:54.770Z,7.31
2016-02-05T11:41:54.835Z,7.37
2016-02-05T11:42:54.759Z,7.35
2016-02-05T11:43:54.762Z,7.32
2016-02-05T11:44:54.750Z,7.37
2016-02-05T11:45:54.753Z,7.32
2016-02-05T11:46:55.051Z,7.25
2016-02-05T11:47:54.961Z,7.34
2016-02-05T11:48:55.025Z,7.35
2016-02-05T11:49:55.044Z,7.34
2016-02-05T11:50:55.234Z,7.37
2016-02-05T11:51:55.081Z,7.4
2016-02-05T11:52:55.864Z,7.37
2016-02-05T11:53:55.258Z,7.34
2016-02-05T11:54:55.541Z,7.35
2016-02-05T11:55:55.060Z,7.42
2016-02-05T11:56:54.891Z,7.32
2016-02-05T11:57:55.238Z,7.34
2016-02-05T11:58:55.006Z,7.35
2016-02-05T11:59:54.947Z,7.34
2016-02-05T12:00:55.214Z,7.35
2016-02-05T12:01:55.421Z,7.32
2016-02-05T12:02:54.956Z,7.37
2016-02-05T12:03:54.552Z,7.27
2016-02-05T12:04:55.604Z,7.17
2016-02-05T12:05:55.341Z,7.23
2016-02-05T12:06:55.156Z,7.16
2016-02-05T12:07:55.003Z,7.13
2016-02-05T12:08:54.584Z,7.2
2016-02-05T12:09:55.106Z,7.23
2016-02-05T12:10:54.859Z,7.2
2016-02-05T12:11:55.032Z,7.09
2016-02-05T12:12:55.520Z,7.1
2016-02-05T12:13:54.913Z,7.1
2016-02-05T12:14:54.915Z,7.1
2016-02-05T12:15:55.012Z,7.07
2016-02-05T12:16:54.889Z,6.99
2016-02-05T12:17:55.004Z,6.97
2016-02-05T12:18:55.053Z,6.91
2016-02-05T12:19:54.994Z,7.02
2016-02-05T12:20:54.965Z,6.99
2016-02-05T12:21:54.952Z,6.95
2016-02-05T12:22:54.879Z,6.95
2016-02-05T12:23:54.928Z,6.97
2016-02-05T12:24:54.369Z,6.98
2016-02-05T12:25:54.965Z,7.02
2016-02-05T12:26:55.016Z,7.02
2016-02-05T12:27:55.002Z,7.02
2016-02-05T12:28:54.755Z,7.05
2016-02-05T12:29:54.853Z,7.06
2016-02-05T12:30:54.888Z,7.1
2016-02-05T12:31:54.859Z,7.16
2016-02-05T12:32:54.909Z,7.17
2016-02-05T12:33:54.852Z,7.23
2016-02-05T12:34:54.872Z,7.23
2016-02-05T12:35:54.889Z,7.21
2016-02-05T12:36:54.892Z,7.21
2016-02-05T12:37:55.023Z,7.35
2016-02-05T12:38:54.745Z,7.42
2016-02-05T12:39:54.731Z,7.46
2016-02-05T12:40:54.734Z,7.52
2016-02-05T12:41:54.737Z,7.5
2016-02-05T12:42:54.741Z,7.61
2016-02-05T12:43:54.822Z,7.5
2016-02-05T12:44:55.137Z,7.58
2016-02-05T12:45:54.905Z,7.57
2016-02-05T12:46:54.768Z,7.49
2016-02-05T12:47:54.754Z,7.57
2016-02-05T12:48:54.804Z,7.53
2016-02-05T12:49:54.759Z,7.42
2016-02-05T12:50:54.720Z,7.46
2016-02-05T12:51:54.816Z,7.39
2016-02-05T12:52:54.788Z,7.35
2016-02-05T12:53:54.946Z,7.31
2016-02-05T12:54:54.793Z,7.35
2016-02-05T12:55:54.736Z,7.35
2016-02-05T12:56:54.739Z,7.37
2016-02-05T12:57:54.727Z,7.27
2016-02-05T12:58:56.042Z,7.24
2016-02-05T12:59:56.529Z,7.23
2016-02-05T13:00:55.861Z,7.17
2016-02-05T13:01:54.847Z,7.23
2016-02-05T13:02:54.742Z,7.23
2016-02-05T13:03:54.667Z,7.2
2016-02-05T13:04:54.863Z,7.05
2016-02-05T13:05:54.714Z,7.1
2016-02-05T13:06:55.856Z,6.98
2016-02-05T13:07:55.203Z,7.02
2016-02-05T13:08:54.565Z,7.03
2016-02-05T13:09:54.895Z,6.92
2016-02-05T13:10:54.731Z,6.91
2016-02-05T13:11:54.734Z,6.94
2016-02-05T13:12:54.704Z,6.98
2016-02-05T13:13:54.723Z,6.92
2016-02-05T13:14:54.742Z,6.94
2016-02-05T13:15:54.714Z,6.85
2016-02-05T13:16:55.982Z,6.81
2016-02-05T13:17:54.969Z,6.88
2016-02-05T13:18:54.941Z,6.92
2016-02-05T13:19:55.022Z,6.92
2016-02-05T13:20:54.868Z,6.89
2016-02-05T13:21:55.058Z,6.87
2016-02-05T13:22:54.968Z,6.88
2016-02-05T13:23:54.831Z,6.92
2016-02-05T13:24:54.865Z,6.92
2016-02-05T13:25:55.055Z,6.94
2016-02-05T13:26:55.276Z,6.91